createdAt,value
2019-02-24T00:00:07.574Z,96015.69
2019-02-24T00:02:36.248Z,96019.02
2019-02-24T00:05:06.418Z,96020.45
2019-02-24T00:07:35.093Z,96015.52
2019-02-24T00:10:04.454Z,96024.09
2019-02-24T00:12:33.127Z,96028.66
2019-02-24T00:15:01.786Z,96025.02
2019-02-24T00:17:30.512Z,96017.08
2019-02-24T00:19:59.168Z,96016.36
2019-02-24T00:22:27.822Z,96023.97
2019-02-24T00:24:57.396Z,96024.41
2019-02-24T00:27:26.059Z,96022.87
2019-02-24T00:29:54.720Z,96029.97
2019-02-24T00:32:23.385Z,96031.05
2019-02-24T00:34:52.110Z,96024.58
2019-02-24T00:37:20.810Z,96024.58
2019-02-24T00:39:49.447Z,96024.76
2019-02-24T00:42:18.127Z,96028.72
2019-02-24T00:44:46.779Z,96026.76
2019-02-24T00:47:15.451Z,96020.45
2019-02-24T00:49:44.114Z,96029.72
2019-02-24T00:52:12.783Z,96023.80
2019-02-24T00:54:41.448Z,96023.11
2019-02-24T00:57:10.108Z,96028.02
2019-02-24T00:59:38.772Z,96023.63
2019-02-24T01:02:07.432Z,96025.14
2019-02-24T01:04:36.128Z,96027.66
2019-02-24T01:07:04.793Z,96022.42
2019-02-24T01:09:33.458Z,96023.59
2019-02-24T01:12:02.124Z,96025.60
2019-02-24T01:14:30.786Z,96020.67
2019-02-24T01:16:59.473Z,96021.79
2019-02-24T01:19:28.134Z,96020.60
2019-02-24T01:21:56.798Z,96023.70
2019-02-24T01:24:25.505Z,96026.68
2019-02-24T01:26:54.187Z,96017.55
2019-02-24T01:29:22.837Z,96024.43
2019-02-24T01:31:51.506Z,96030.06
2019-02-24T01:34:20.185Z,96024.05
2019-02-24T01:36:48.871Z,96010.50
2019-02-24T01:39:17.549Z,96013.19
2019-02-24T01:41:46.286Z,96011.53
2019-02-24T01:44:14.951Z,96018.48
2019-02-24T01:46:43.660Z,96026.47
2019-02-24T01:49:12.357Z,96016.59
2019-02-24T01:51:41.022Z,96017.91
2019-02-24T01:54:09.694Z,96018.47
2019-02-24T01:56:38.373Z,96017.34
2019-02-24T01:59:07.045Z,96013.23
2019-02-24T02:01:35.703Z,96014.81
2019-02-24T02:04:04.388Z,96010.50
2019-02-24T02:06:33.153Z,96001.02
2019-02-24T02:09:01.819Z,96007.34
2019-02-24T02:11:30.507Z,96008.34
2019-02-24T02:13:59.237Z,96006.88
2019-02-24T02:16:27.892Z,96004.27
2019-02-24T02:18:56.554Z,95996.07
2019-02-24T02:21:25.230Z,95988.51
2019-02-24T02:23:53.892Z,95982.13
2019-02-24T02:26:22.572Z,95977.70
2019-02-24T02:28:51.255Z,95980.48
2019-02-24T02:31:19.934Z,95984.64
2019-02-24T02:33:48.610Z,95984.52
2019-02-24T02:36:17.259Z,95975.92
2019-02-24T02:38:45.948Z,95981.27
2019-02-24T02:41:14.610Z,95978.20
2019-02-24T02:43:43.274Z,95972.05
2019-02-24T02:46:11.934Z,95981.42
2019-02-24T02:48:40.628Z,95986.58
2019-02-24T02:51:09.573Z,95984.52
2019-02-24T02:53:38.299Z,95982.68
2019-02-24T02:56:06.954Z,95984.45
2019-02-24T02:58:35.623Z,95985.78
2019-02-24T03:01:04.289Z,95987.48
2019-02-24T03:03:32.961Z,95980.88
2019-02-24T03:06:03.203Z,95983.00
2019-02-24T03:08:48.518Z,95987.16
2019-02-24T03:11:17.494Z,95984.10
2019-02-24T03:13:46.171Z,95983.13
2019-02-24T03:16:16.413Z,95980.46
2019-02-24T03:18:45.118Z,95984.59
2019-02-24T03:21:13.770Z,95978.67
2019-02-24T03:23:42.445Z,95982.53
2019-02-24T03:26:11.101Z,95988.55
2019-02-24T03:28:39.775Z,95986.40
2019-02-24T03:31:08.497Z,95989.52
2019-02-24T03:33:37.139Z,95989.97
2019-02-24T03:36:05.802Z,95994.56
2019-02-24T03:38:34.462Z,95997.98
2019-02-24T03:41:03.127Z,95990.56
2019-02-24T03:43:31.839Z,95987.28
2019-02-24T03:46:00.506Z,95990.80
2019-02-24T03:48:29.179Z,95986.38
2019-02-24T03:50:57.842Z,95981.58
2019-02-24T03:53:26.567Z,95984.33
2019-02-24T03:55:57.543Z,95979.26
2019-02-24T03:58:25.710Z,95978.47
2019-02-24T04:00:54.376Z,95980.23
2019-02-24T04:03:23.049Z,95977.13
2019-02-24T04:05:51.734Z,95977.59
2019-02-24T04:08:20.402Z,95977.47
2019-02-24T04:10:49.100Z,95977.59
2019-02-24T04:13:17.777Z,95977.39
2019-02-24T04:15:46.584Z,95972.90
2019-02-24T04:18:15.250Z,95977.37
2019-02-24T04:20:43.921Z,95982.86
2019-02-24T04:23:12.597Z,95974.09
2019-02-24T04:25:41.261Z,95972.90
2019-02-24T04:28:09.948Z,95970.25
2019-02-24T04:30:38.613Z,95975.64
2019-02-24T04:33:07.287Z,95967.83
2019-02-24T04:35:35.933Z,95963.89
2019-02-24T04:38:04.699Z,95965.35
2019-02-24T04:40:33.384Z,95961.37
2019-02-24T04:43:02.043Z,95962.50
2019-02-24T04:45:30.731Z,95966.76
2019-02-24T04:47:59.393Z,95959.93
2019-02-24T04:50:28.062Z,95957.73
2019-02-24T04:52:56.751Z,95952.11
2019-02-24T04:55:25.412Z,95949.94
2019-02-24T04:57:54.086Z,95955.21
2019-02-24T05:00:22.753Z,95956.06
2019-02-24T05:02:51.410Z,95952.54
2019-02-24T05:05:20.077Z,95954.03
2019-02-24T05:07:48.825Z,95952.33
2019-02-24T05:10:17.499Z,95963.66
2019-02-24T05:12:46.170Z,95964.36
2019-02-24T05:15:14.842Z,95964.80
2019-02-24T05:17:43.510Z,95976.34
2019-02-24T05:20:12.173Z,95978.52
2019-02-24T05:22:40.837Z,95992.95
2019-02-24T05:25:09.513Z,95991.72
2019-02-24T05:27:38.180Z,95994.97
2019-02-24T05:30:07.114Z,95990.43
2019-02-24T05:32:35.762Z,95996.90
2019-02-24T05:35:05.029Z,96005.23
2019-02-24T05:37:33.689Z,96003.44
2019-02-24T05:40:02.351Z,96004.63
2019-02-24T05:42:31.023Z,96012.86
2019-02-24T05:44:59.761Z,96015.41
2019-02-24T05:47:28.408Z,96011.60
2019-02-24T05:49:57.074Z,96014.58
2019-02-24T05:52:25.741Z,96010.66
2019-02-24T05:54:54.400Z,96012.63
2019-02-24T05:57:23.075Z,96021.24
2019-02-24T05:59:55.380Z,96024.14
2019-02-24T06:02:22.183Z,96026.94
2019-02-24T06:04:50.847Z,96025.77
2019-02-24T06:07:19.621Z,96019.96
2019-02-24T06:09:48.290Z,96019.84
2019-02-24T06:12:16.970Z,96026.33
2019-02-24T06:14:45.664Z,96029.98
2019-02-24T06:17:14.329Z,96030.56
2019-02-24T06:19:42.994Z,96033.80
2019-02-24T06:22:11.665Z,96036.61
2019-02-24T06:24:40.335Z,96038.22
2019-02-24T06:27:09.024Z,96036.40
2019-02-24T06:29:37.744Z,96040.64
2019-02-24T06:32:06.402Z,96043.56
2019-02-24T06:34:35.111Z,96019.93
2019-02-24T06:37:03.788Z,96042.45
2019-02-24T06:39:32.464Z,96045.96
2019-02-24T06:42:01.144Z,96035.06
2019-02-24T06:44:29.798Z,96040.83
2019-02-24T06:46:58.568Z,96037.64
2019-02-24T06:49:27.255Z,96037.20
2019-02-24T06:51:56.127Z,96040.58
2019-02-24T06:54:24.758Z,96044.02
2019-02-24T06:56:53.429Z,96043.61
2019-02-24T06:59:22.103Z,96042.97
2019-02-24T07:01:50.752Z,96045.27
2019-02-24T07:04:19.427Z,96054.60
2019-02-24T07:06:48.107Z,96057.61
2019-02-24T07:09:16.769Z,96053.14
2019-02-24T07:11:45.440Z,96067.16
2019-02-24T07:14:14.120Z,96059.09
2019-02-24T07:16:42.843Z,96059.67
2019-02-24T07:19:11.553Z,96062.00
2019-02-24T07:21:40.194Z,96064.26
2019-02-24T07:24:08.906Z,96058.46
2019-02-24T07:26:37.555Z,96061.75
2019-02-24T07:29:06.219Z,96054.00
2019-02-24T07:31:34.880Z,96056.43
2019-02-24T07:34:03.548Z,96058.19
2019-02-24T07:36:32.229Z,96060.91
2019-02-24T07:39:00.955Z,96059.16
2019-02-24T07:41:29.625Z,96057.94
2019-02-24T07:43:58.285Z,96060.29
2019-02-24T07:46:26.952Z,96057.92
2019-02-24T07:48:55.658Z,96058.81
2019-02-24T07:51:24.335Z,96056.53
2019-02-24T07:53:53.014Z,96063.94
2019-02-24T07:56:21.681Z,96057.52
2019-02-24T07:58:50.372Z,96055.48
2019-02-24T08:01:19.038Z,96063.89
2019-02-24T08:03:47.699Z,96057.55
2019-02-24T08:06:16.372Z,96060.75
2019-02-24T08:08:45.033Z,96046.31
2019-02-24T08:11:13.685Z,96061.96
2019-02-24T08:13:44.048Z,96059.08
2019-02-24T08:16:12.808Z,96054.95
2019-02-24T08:18:49.254Z,96059.28
2019-02-24T08:21:11.863Z,96055.60
2019-02-24T08:23:40.564Z,96059.80
2019-02-24T08:26:09.222Z,96057.17
2019-02-24T08:28:37.882Z,96054.05
2019-02-24T08:31:06.547Z,96053.29
2019-02-24T08:33:35.220Z,96051.34
2019-02-24T08:36:03.893Z,96056.11
2019-02-24T08:38:32.559Z,96055.98
2019-02-24T08:41:01.230Z,96049.47
2019-02-24T08:43:29.933Z,96047.24
2019-02-24T08:45:58.571Z,96050.75
2019-02-24T08:48:27.259Z,96050.15
2019-02-24T08:50:55.923Z,96047.14
2019-02-24T08:53:24.650Z,96045.85
2019-02-24T08:55:53.319Z,96040.51
2019-02-24T08:58:21.979Z,96039.71
2019-02-24T09:00:51.382Z,96039.51
2019-02-24T09:03:20.198Z,96041.41
2019-02-24T09:05:48.853Z,96040.56
2019-02-24T09:08:17.523Z,96038.77
2019-02-24T09:10:46.217Z,96032.73
2019-02-24T09:13:14.853Z,96031.37
2019-02-24T09:15:43.524Z,96033.35
2019-02-24T09:18:12.184Z,96032.95
2019-02-24T09:20:40.925Z,96033.91
2019-02-24T09:23:09.579Z,96022.41
2019-02-24T09:25:38.256Z,96027.79
2019-02-24T09:28:06.928Z,96030.00
2019-02-24T09:30:35.591Z,96030.16
2019-02-24T09:33:04.296Z,96023.97
2019-02-24T09:35:32.953Z,96025.80
2019-02-24T09:38:01.628Z,96021.87
2019-02-24T09:40:30.298Z,96021.86
2019-02-24T09:42:58.954Z,96022.03
2019-02-24T09:45:27.626Z,96019.06
2019-02-24T09:47:56.309Z,96018.44
2019-02-24T09:50:24.996Z,96020.59
2019-02-24T09:52:53.668Z,96015.83
2019-02-24T09:55:22.323Z,96008.64
2019-02-24T09:57:50.983Z,96014.19
2019-02-24T10:00:21.862Z,96006.98
2019-02-24T10:02:50.050Z,96002.00
2019-02-24T10:05:18.789Z,95999.23
2019-02-24T10:07:47.464Z,95994.38
2019-02-24T10:10:16.129Z,95998.98
2019-02-24T10:12:44.808Z,95990.52
2019-02-24T10:15:15.142Z,95978.69
2019-02-24T10:17:43.820Z,95978.34
2019-02-24T10:20:13.095Z,95976.36
2019-02-24T10:22:41.754Z,95966.88
2019-02-24T10:25:10.746Z,95959.31
2019-02-24T10:27:39.389Z,95950.99
2019-02-24T10:30:13.650Z,95944.98
2019-02-24T10:32:42.306Z,95945.58
2019-02-24T10:35:10.988Z,95946.84
2019-02-24T10:37:39.655Z,95940.38
2019-02-24T10:40:16.182Z,95941.56
2019-02-24T10:42:44.879Z,95938.10
2019-02-24T10:45:18.043Z,95922.80
2019-02-24T10:47:46.731Z,95908.06
2019-02-24T10:50:16.298Z,95919.74
2019-02-24T10:52:44.960Z,95913.34
2019-02-24T10:55:13.736Z,95917.82
2019-02-24T10:57:42.396Z,95915.50
2019-02-24T11:00:21.258Z,95908.41
2019-02-24T11:02:49.936Z,95912.25
2019-02-24T11:05:18.607Z,95915.08
2019-02-24T11:07:47.289Z,95907.53
2019-02-24T11:10:15.946Z,95899.20
2019-02-24T11:12:44.615Z,95897.49
2019-02-24T11:15:13.883Z,95897.07
2019-02-24T11:17:42.548Z,95888.55
2019-02-24T11:20:13.415Z,95889.42
2019-02-24T11:22:42.074Z,95892.67
2019-02-24T11:25:11.693Z,95891.38
2019-02-24T11:27:40.407Z,95891.17
2019-02-24T11:30:14.266Z,95885.09
2019-02-24T11:32:43.028Z,95888.25
2019-02-24T11:35:12.402Z,95879.77
2019-02-24T11:37:41.066Z,95852.70
2019-02-24T11:40:17.537Z,95876.91
2019-02-24T11:42:46.278Z,95870.33
2019-02-24T11:45:14.918Z,95862.37
2019-02-24T11:47:43.585Z,95858.80
2019-02-24T11:50:13.043Z,95864.38
2019-02-24T11:52:41.754Z,95860.81
2019-02-24T11:55:11.079Z,95859.59
2019-02-24T11:57:39.834Z,95849.19
2019-02-24T12:00:11.754Z,95848.30
2019-02-24T12:02:41.802Z,95841.52
2019-02-24T12:05:11.127Z,95843.90
2019-02-24T12:07:39.812Z,95819.75
2019-02-24T12:10:12.284Z,95838.22
2019-02-24T12:12:40.943Z,95846.55
2019-02-24T12:15:14.318Z,95832.44
2019-02-24T12:17:43.105Z,95827.39
2019-02-24T12:20:13.546Z,95823.52
2019-02-24T12:22:42.205Z,95823.64
2019-02-24T12:25:11.675Z,95820.30
2019-02-24T12:27:40.329Z,95813.50
2019-02-24T12:30:16.025Z,95815.52
2019-02-24T12:32:44.693Z,95815.75
2019-02-24T12:35:13.354Z,95816.07
2019-02-24T12:37:42.025Z,95818.16
2019-02-24T12:40:14.578Z,95820.30
2019-02-24T12:42:43.242Z,95818.68
2019-02-24T12:45:12.186Z,95823.52
2019-02-24T12:47:40.844Z,95804.10
2019-02-24T12:50:11.886Z,95818.79
2019-02-24T12:52:40.544Z,95819.45
2019-02-24T12:55:10.112Z,95821.72
2019-02-24T12:57:39.069Z,95821.59
2019-02-24T13:00:11.556Z,95816.28
2019-02-24T13:02:40.213Z,95809.05
2019-02-24T13:05:08.874Z,95809.27
2019-02-24T13:07:37.533Z,95807.44
2019-02-24T13:10:09.395Z,95816.72
2019-02-24T13:12:38.081Z,95812.28
2019-02-24T13:15:06.940Z,95803.98
2019-02-24T13:17:35.605Z,95811.05
2019-02-24T13:20:05.801Z,95812.50
2019-02-24T13:22:34.595Z,95812.80
2019-02-24T13:25:03.258Z,95817.88
2019-02-24T13:27:31.942Z,95814.41
2019-02-24T13:30:00.607Z,95812.55
2019-02-24T13:32:29.271Z,95810.55
2019-02-24T13:34:57.959Z,95816.71
2019-02-24T13:37:26.647Z,95817.59
2019-02-24T13:39:55.309Z,95818.80
2019-02-24T13:42:24.002Z,95826.76
2019-02-24T13:44:52.704Z,95819.80
2019-02-24T13:47:21.352Z,95810.63
2019-02-24T13:49:50.022Z,95814.06
2019-02-24T13:52:18.684Z,95817.65
2019-02-24T13:54:47.339Z,95816.53
2019-02-24T13:57:15.996Z,95813.88
2019-02-24T13:59:44.655Z,95795.20
2019-02-24T14:02:13.329Z,95817.63
2019-02-24T14:04:42.028Z,95823.82
2019-02-24T14:07:10.683Z,95819.81
2019-02-24T14:09:39.371Z,95808.78
2019-02-24T14:12:08.041Z,95815.74
2019-02-24T14:14:36.697Z,95816.07
2019-02-24T14:17:05.369Z,95806.92
2019-02-24T14:19:34.036Z,95808.94
2019-02-24T14:22:02.720Z,95806.42
2019-02-24T14:24:31.379Z,95804.27
2019-02-24T14:27:00.078Z,95806.86
2019-02-24T14:29:28.746Z,95808.83
2019-02-24T14:31:57.446Z,95810.71
2019-02-24T14:34:26.106Z,95813.38
2019-02-24T14:36:54.786Z,95816.22
2019-02-24T14:39:23.450Z,95821.42
2019-02-24T14:41:52.130Z,95814.92
2019-02-24T14:44:20.786Z,95806.98
2019-02-24T14:46:49.472Z,95812.17
2019-02-24T14:49:18.143Z,95812.73
2019-02-24T14:51:46.828Z,95811.00
2019-02-24T14:54:15.538Z,95809.10
2019-02-24T14:56:44.204Z,95816.35
2019-02-24T14:59:12.878Z,95809.68
2019-02-24T15:01:41.546Z,95780.27
2019-02-24T15:04:10.202Z,95808.86
2019-02-24T15:06:38.869Z,95802.03
2019-02-24T15:09:07.938Z,95797.28
2019-02-24T15:11:36.599Z,95805.80
2019-02-24T15:14:05.271Z,95802.16
2019-02-24T15:16:33.975Z,95800.45
2019-02-24T15:19:02.606Z,95801.17
2019-02-24T15:21:31.308Z,95798.66
2019-02-24T15:23:59.979Z,95806.08
2019-02-24T15:26:29.309Z,95802.12
2019-02-24T15:28:58.091Z,95806.36
2019-02-24T15:31:26.758Z,95803.30
2019-02-24T15:33:55.426Z,95806.47
2019-02-24T15:36:24.085Z,95805.88
2019-02-24T15:38:52.782Z,95804.14
2019-02-24T15:41:29.566Z,95795.17
2019-02-24T15:43:51.903Z,95799.16
2019-02-24T15:46:20.570Z,95802.91
2019-02-24T15:48:49.243Z,95795.12
2019-02-24T15:51:17.917Z,95793.92
2019-02-24T15:53:46.696Z,95797.01
2019-02-24T15:56:15.375Z,95800.78
2019-02-24T15:58:44.077Z,95804.01
2019-02-24T16:01:12.743Z,95805.00
2019-02-24T16:03:41.416Z,95804.06
2019-02-24T16:06:10.090Z,95806.89
2019-02-24T16:08:38.766Z,95803.00
2019-02-24T16:11:07.457Z,95812.50
2019-02-24T16:13:36.116Z,95813.41
2019-02-24T16:16:04.789Z,95813.38
2019-02-24T16:18:33.489Z,95809.68
2019-02-24T16:21:02.120Z,95811.39
2019-02-24T16:23:30.798Z,95813.70
2019-02-24T16:25:59.466Z,95815.73
2019-02-24T16:28:28.202Z,95821.57
2019-02-24T16:30:56.876Z,95825.43
2019-02-24T16:33:25.581Z,95834.03
2019-02-24T16:35:54.254Z,95835.19
2019-02-24T16:38:22.905Z,95837.75
2019-02-24T16:40:51.576Z,95832.25
2019-02-24T16:43:20.258Z,95838.91
2019-02-24T16:45:48.936Z,95837.03
2019-02-24T16:48:17.616Z,95836.62
2019-02-24T16:50:46.282Z,95844.81
2019-02-24T16:53:14.954Z,95846.90
2019-02-24T16:55:43.615Z,95846.08
2019-02-24T16:58:12.322Z,95844.30
2019-02-24T17:00:41.133Z,95845.50
2019-02-24T17:03:09.796Z,95850.07
2019-02-24T17:05:38.662Z,95845.22
2019-02-24T17:08:07.340Z,95846.06
2019-02-24T17:10:36.131Z,95852.93
2019-02-24T17:13:04.815Z,95849.81
2019-02-24T17:15:33.535Z,95847.41
2019-02-24T17:18:02.204Z,95849.77
2019-02-24T17:20:31.269Z,95847.48
2019-02-24T17:22:59.976Z,95850.59
2019-02-24T17:25:28.709Z,95824.46
2019-02-24T17:27:57.385Z,95839.93
2019-02-24T17:30:26.139Z,95846.58
2019-02-24T17:32:54.855Z,95848.61
2019-02-24T17:35:23.534Z,95838.14
2019-02-24T17:37:52.221Z,95839.56
2019-02-24T17:40:23.866Z,95839.20
2019-02-24T17:42:52.535Z,95836.48
2019-02-24T17:45:21.212Z,95835.91
2019-02-24T17:47:49.915Z,95834.58
2019-02-24T17:50:18.795Z,95837.28
2019-02-24T17:52:47.465Z,95844.12
2019-02-24T17:55:17.158Z,95839.13
2019-02-24T17:57:45.828Z,95840.78
2019-02-24T18:00:33.011Z,95841.84
2019-02-24T18:03:01.680Z,95849.05
2019-02-24T18:05:30.456Z,95860.78
2019-02-24T18:07:59.159Z,95847.44
2019-02-24T18:10:27.790Z,95854.34
2019-02-24T18:12:56.459Z,95854.45
2019-02-24T18:15:25.173Z,95857.70
2019-02-24T18:17:53.861Z,95862.16
2019-02-24T18:20:23.030Z,95866.78
2019-02-24T18:22:51.714Z,95862.58
2019-02-24T18:25:20.395Z,95872.75
2019-02-24T18:27:49.181Z,95872.07
2019-02-24T18:30:26.262Z,95868.26
2019-02-24T18:32:54.941Z,95860.27
2019-02-24T18:35:23.612Z,95866.88
2019-02-24T18:37:52.304Z,95870.59
2019-02-24T18:40:20.993Z,95859.96
2019-02-24T18:42:49.668Z,95859.05
2019-02-24T18:45:18.355Z,95862.33
2019-02-24T18:47:47.034Z,95867.73
2019-02-24T18:50:16.714Z,95875.59
2019-02-24T18:52:45.394Z,95862.78
2019-02-24T18:55:14.272Z,95869.61
2019-02-24T18:57:42.948Z,95879.88
2019-02-24T19:00:22.113Z,95880.33
2019-02-24T19:02:50.788Z,95876.71
2019-02-24T19:05:19.475Z,95877.45
2019-02-24T19:07:48.134Z,95872.62
2019-02-24T19:10:23.705Z,95873.96
2019-02-24T19:12:52.389Z,95876.41
2019-02-24T19:15:23.606Z,95873.53
2019-02-24T19:17:52.291Z,95873.64
2019-02-24T19:20:22.184Z,95868.12
2019-02-24T19:22:50.955Z,95874.59
2019-02-24T19:25:19.616Z,95881.05
2019-02-24T19:27:48.301Z,95878.13
2019-02-24T19:30:20.642Z,95883.73
2019-02-24T19:32:49.336Z,95881.55
2019-02-24T19:35:19.417Z,95876.59
2019-02-24T19:37:48.104Z,95881.77
2019-02-24T19:40:21.780Z,95881.33
2019-02-24T19:42:50.464Z,95880.86
2019-02-24T19:45:20.955Z,95880.40
2019-02-24T19:47:49.727Z,95877.10
2019-02-24T19:50:18.822Z,95869.97
2019-02-24T19:52:47.502Z,95871.41
2019-02-24T19:55:17.097Z,95865.23
2019-02-24T19:57:45.827Z,95866.52
2019-02-24T20:00:19.995Z,95862.27
2019-02-24T20:02:48.661Z,95862.82
2019-02-24T20:05:17.355Z,95866.27
2019-02-24T20:07:46.042Z,95866.82
2019-02-24T20:10:26.602Z,95856.30
2019-02-24T20:12:55.276Z,95854.72
2019-02-24T20:15:23.944Z,95852.27
2019-02-24T20:17:52.663Z,95855.47
2019-02-24T20:20:21.278Z,95855.52
2019-02-24T20:22:50.012Z,95849.19
2019-02-24T20:25:22.757Z,95849.73
2019-02-24T20:27:51.430Z,95850.91
2019-02-24T20:30:23.031Z,95855.23
2019-02-24T20:32:51.707Z,95858.92
2019-02-24T20:35:20.496Z,95859.02
2019-02-24T20:37:49.207Z,95863.91
2019-02-24T20:40:17.881Z,95859.59
2019-02-24T20:42:46.558Z,95865.41
2019-02-24T20:45:17.440Z,95871.98
2019-02-24T20:47:46.213Z,95870.67
2019-02-24T20:50:17.461Z,95868.33
2019-02-24T20:52:46.133Z,95870.59
2019-02-24T20:55:14.839Z,95875.05
2019-02-24T20:57:43.525Z,95873.22
2019-02-24T21:00:44.211Z,95869.60
2019-02-24T21:03:12.883Z,95865.56
2019-02-24T21:05:41.561Z,95870.28
2019-02-24T21:08:10.246Z,95867.42
2019-02-24T21:10:38.919Z,95870.20
2019-02-24T21:13:07.594Z,95864.50
2019-02-24T21:15:36.271Z,95864.24
2019-02-24T21:18:05.245Z,95868.33
2019-02-24T21:20:34.699Z,95853.72
2019-02-24T21:23:03.364Z,95861.08
2019-02-24T21:25:32.058Z,95858.28
2019-02-24T21:28:00.730Z,95856.90
2019-02-24T21:30:29.418Z,95858.73
2019-02-24T21:32:58.177Z,95850.70
2019-02-24T21:35:26.945Z,95851.49
2019-02-24T21:37:55.625Z,95852.36
2019-02-24T21:40:24.306Z,95854.63
2019-02-24T21:42:52.974Z,95855.18
2019-02-24T21:45:26.378Z,95848.64
2019-02-24T21:47:55.042Z,95848.72
2019-02-24T21:50:23.715Z,95839.58
2019-02-24T21:52:52.496Z,95839.73
2019-02-24T21:55:21.191Z,95842.45
2019-02-24T21:57:49.857Z,95844.48
2019-02-24T22:00:26.661Z,95845.45
2019-02-24T22:02:55.328Z,95845.59
2019-02-24T22:05:24.000Z,95853.50
2019-02-24T22:07:52.684Z,95851.94
2019-02-24T22:10:21.354Z,95855.37
2019-02-24T22:12:50.027Z,95862.40
2019-02-24T22:15:21.335Z,95855.55
2019-02-24T22:17:50.017Z,95858.55
2019-02-24T22:20:18.709Z,95852.46
2019-02-24T22:22:47.414Z,95834.16
2019-02-24T22:25:16.393Z,95856.91
2019-02-24T22:27:45.165Z,95862.16
2019-02-24T22:30:16.020Z,95862.43
2019-02-24T22:32:44.805Z,95871.66
2019-02-24T22:35:13.488Z,95861.87
2019-02-24T22:37:42.171Z,95872.06
2019-02-24T22:40:12.437Z,95869.60
2019-02-24T22:42:42.018Z,95864.38
2019-02-24T22:45:21.443Z,95869.31
2019-02-24T22:47:50.243Z,95866.89
2019-02-24T22:50:18.931Z,95865.48
2019-02-24T22:52:47.613Z,95876.48
2019-02-24T22:55:18.373Z,95872.29
2019-02-24T22:57:47.145Z,95879.09
2019-02-24T23:00:36.822Z,95881.78
2019-02-24T23:03:05.905Z,95874.41
2019-02-24T23:05:34.581Z,95873.98
2019-02-24T23:08:03.259Z,95869.13
2019-02-24T23:10:31.969Z,95866.88
2019-02-24T23:13:00.640Z,95869.95
2019-02-24T23:15:29.314Z,95847.84
2019-02-24T23:17:57.988Z,95870.63
2019-02-24T23:20:26.782Z,95867.10
2019-02-24T23:22:55.460Z,95863.70
2019-02-24T23:25:24.126Z,95864.31
2019-02-24T23:27:52.796Z,95858.23
2019-02-24T23:30:21.484Z,95849.63
2019-02-24T23:32:50.151Z,95845.88
2019-02-24T23:35:18.835Z,95846.86
2019-02-24T23:37:47.520Z,95846.04
2019-02-24T23:40:16.235Z,95838.81
2019-02-24T23:42:44.934Z,95848.37
2019-02-24T23:45:13.719Z,95852.28
2019-02-24T23:47:42.396Z,95859.38
2019-02-24T23:50:12.389Z,95854.89
2019-02-24T23:52:41.061Z,95862.30
2019-02-24T23:55:10.937Z,95865.55
2019-02-24T23:57:39.628Z,95859.55
